Data for 12/14/2014

Time Sea-Level Adjusted Pressure Absolute Pressure Temperature Relative Humidity Dew Point   
(mb) (inHg) (mb) (inHg) (C) (F) (%) (C) (F)
00:05 1018 30.06 847 25.01 -0.6 30.9 95 -1.3 29.7
00:10 1018 30.06 847 25.01 -0.6 30.9 95 -1.3 29.6
00:15 1018 30.06 847 25.01 -0.6 30.8 95 -1.4 29.6
00:20 1018 30.06 847 25.01 -0.7 30.8 95 -1.4 29.4
00:25 1018 30.06 847 25.01 -0.7 30.7 95 -1.5 29.3
00:30 1018 30.06 847 25.01 -0.8 30.6 95 -1.5 29.3
00:35 1018 30.06 847 25.01 -0.8 30.6 95 -1.5 29.3
00:40 1018 30.06 847 25.01 -0.8 30.6 95 -1.6 29.2
00:45 1018 30.06 847 25.01 -0.8 30.5 95 -1.6 29.1
00:50 1018 30.06 847 25.01 -0.9 30.5 95 -1.6 29.1
00:55 1018 30.06 847 25.01 -0.9 30.4 95 -1.6 29
01:00 1018 30.06 847 25.01 -0.9 30.4 95 -1.7 29
01:05 1018 30.06 847 25.01 -0.8 30.5 94 -1.7 29
01:10 1018 30.06 847 25.01 -0.9 30.5 94 -1.7 28.9
01:15 1018 30.06 847 25.01 -0.9 30.4 94 -1.8 28.8
01:20 1018 30.06 847 25.01 -0.9 30.4 94 -1.8 28.7
01:25 1018 30.06 847 25.01 -0.9 30.4 93 -1.8 28.7
01:30 1018 30.06 847 25.01 -1 30.3 93 -2 28.5
01:35 1018 30.06 848 25.04 -1 30.2 93 -2 28.4
01:40 1018 30.06 847 25.01 -1 30.3 92 -2.1 28.3
01:45 1018 30.06 847 25.01 -0.9 30.3 92 -2.1 28.3
01:50 1018 30.06 848 25.04 -1 30.2 91 -2.2 28
01:55 1018 30.06 848 25.04 -1 30.2 92 -2.2 28
02:00 1018 30.06 848 25.04 -1.1 30.1 91 -2.3 27.9
02:05 1019 30.09 848 25.04 -1.1 30 91 -2.3 27.8
02:10 1019 30.09 848 25.04 -1.1 30 91 -2.3 27.8
02:15 1018 30.06 848 25.04 -1 30.1 91 -2.4 27.7
02:20 1018 30.06 848 25.04 -1 30.2 90 -2.5 27.6
02:25 1018 30.06 848 25.04 -1 30.2 90 -2.5 27.6
02:30 1019 30.09 848 25.04 -1 30.1 90 -2.5 27.4
02:35 1019 30.09 848 25.04 -1.1 30.1 89 -2.6 27.3
02:40 1019 30.09 848 25.04 -1.1 30.1 89 -2.6 27.3
02:45 1019 30.09 848 25.04 -1.1 30 90 -2.6 27.3
02:50 1019 30.09 848 25.04 -1.1 30 89 -2.7 27.2
02:55 1019 30.09 848 25.04 -1.1 30 89 -2.7 27.1
03:00 1019 30.09 848 25.04 -1.2 29.9 89 -2.8 26.9
03:05 1019 30.09 848 25.04 -1.3 29.7 89 -2.9 26.8
03:10 1019 30.09 848 25.04 -1.3 29.7 89 -2.8 26.9
03:15 1019 30.09 848 25.04 -1.3 29.7 89 -2.8 26.9
03:20 1019 30.09 848 25.04 -1.2 29.8 89 -2.8 27
03:25 1019 30.09 848 25.04 -1.2 29.8 90 -2.7 27.1
03:30 1019 30.09 848 25.04 -1.3 29.7 89 -2.8 27
03:35 1019 30.09 848 25.04 -1.3 29.6 89 -2.9 26.8
03:40 1019 30.09 848 25.04 -1.3 29.6 89 -2.9 26.7
03:45 1019 30.09 848 25.04 -1.3 29.6 88 -3 26.6
03:50 1019 30.09 848 25.04 -1.3 29.6 89 -3 26.7
03:55 1019 30.09 848 25.04 -1.3 29.6 89 -3 26.6
04:00 1019 30.09 848 25.04 -1.4 29.5 89 -3 26.7
04:05 1019 30.09 848 25.04 -1.4 29.4 89 -3 26.7
04:10 1019 30.09 848 25.04 -1.4 29.4 89 -3 26.6
04:15 1019 30.09 848 25.04 -1.4 29.5 88 -3.1 26.4
04:20 1019 30.09 848 25.04 -1.4 29.6 87 -3.2 26.2
04:25 1019 30.09 848 25.04 -1.3 29.6 87 -3.2 26.2
04:30 1019 30.09 848 25.04 -1.3 29.7 87 -3.3 26.1
04:35 1019 30.09 848 25.04 -1.4 29.6 87 -3.3 26.1
04:40 1019 30.09 848 25.04 -1.4 29.5 86 -3.4 25.9
04:45 1019 30.09 848 25.04 -1.4 29.5 87 -3.3 26
04:50 1019 30.09 848 25.04 -1.4 29.4 89 -3.1 26.5
04:55 1019 30.09 848 25.04 -1.5 29.2 89 -3.2 26.3
05:00 1019 30.09 848 25.04 -1.6 29.2 89 -3.1 26.5
05:05 1019 30.09 848 25.04 -1.6 29.1 91 -2.9 26.7
05:10 1019 30.09 848 25.04 -1.7 29 91 -2.9 26.8
05:15 1019 30.09 848 25.04 -1.7 29 91 -2.9 26.7
05:20 1019 30.09 848 25.04 -1.8 28.8 91 -3 26.6
05:25 1019 30.09 849 25.07 -1.8 28.8 92 -3 26.7
05:30 1019 30.09 849 25.07 -1.8 28.7 92 -3 26.7
05:35 1019 30.09 849 25.07 -1.8 28.7 92 -2.9 26.8
05:40 1019 30.09 848 25.04 -2 28.5 93 -3 26.6
05:45 1019 30.09 849 25.07 -2 28.4 93 -3 26.7
05:50 1019 30.09 849 25.07 -2 28.3 93 -3 26.6
05:55 1019 30.09 849 25.07 -2.1 28.3 94 -3 26.7
06:00 1019 30.09 849 25.07 -2.1 28.2 94 -3 26.6
06:05 1019 30.09 848 25.04 -2.1 28.2 94 -3 26.6
06:10 1019 30.09 848 25.04 -2.2 28.1 94 -3 26.6
06:15 1019 30.09 849 25.07 -2.2 28 94 -3.1 26.5
06:20 1019 30.09 849 25.07 -2.2 28 94 -3.1 26.5
06:25 1019 30.09 849 25.07 -2.3 27.9 94 -3.1 26.3
06:30 1019 30.09 849 25.07 -2.3 27.8 94 -3.2 26.3
06:35 1019 30.09 849 25.07 -2.3 27.8 94 -3.2 26.3
06:40 1019 30.09 849 25.07 -2.3 27.8 94 -3.2 26.3
06:45 1019 30.09 849 25.07 -2.3 27.8 94 -3.1 26.4
06:50 1019 30.09 849 25.07 -2.4 27.8 94 -3.2 26.3
06:55 1020 30.12 849 25.07 -2.4 27.7 94 -3.2 26.2
07:00 1020 30.12 849 25.07 -2.4 27.6 94 -3.3 26.1
07:05 1020 30.12 849 25.07 -2.5 27.5 94 -3.3 26.1
07:10 1020 30.12 849 25.07 -2.5 27.5 94 -3.3 26.1
07:15 1020 30.12 849 25.07 -2.5 27.5 94 -3.3 26.1
07:20 1020 30.12 849 25.07 -2.5 27.5 94 -3.3 26.1
07:25 1020 30.12 849 25.07 -2.6 27.4 95 -3.3 26
07:30 1020 30.12 849 25.07 -2.6 27.4 95 -3.3 26
07:35 1020 30.12 849 25.07 -2.5 27.4 95 -3.3 26.1
07:40 1020 30.12 849 25.07 -2.5 27.4 95 -3.3 26.1
07:45 1020 30.12 849 25.07 -2.6 27.4 95 -3.3 26
07:50 1020 30.12 849 25.07 -2.6 27.4 95 -3.3 26
07:55 1020 30.12 849 25.07 -2.6 27.4 95 -3.3 26
08:00 1020 30.12 849 25.07 -2.6 27.4 94 -3.3 26
08:05 1020 30.12 849 25.07 -2.6 27.3 94 -3.4 25.9
08:10 1020 30.12 849 25.07 -2.6 27.3 94 -3.4 25.9
08:15 1020 30.12 849 25.07 -2.6 27.3 94 -3.4 25.9
08:20 1020 30.12 849 25.07 -2.7 27.2 94 -3.5 25.8
08:25 1020 30.12 849 25.07 -2.7 27.2 94 -3.5 25.8
08:30 1020 30.12 849 25.07 -2.7 27.1 94 -3.5 25.7
08:35 1020 30.12 849 25.07 -2.7 27.1 94 -3.6 25.6
08:40 1020 30.12 849 25.07 -2.8 26.9 94 -3.6 25.5
08:45 1020 30.12 849 25.07 -2.8 26.9 94 -3.6 25.5
08:50 1020 30.12 849 25.07 -2.8 26.9 94 -3.6 25.5
08:55 1020 30.12 849 25.07 -2.9 26.9 94 -3.7 25.3
09:00 1020 30.12 849 25.07 -2.8 26.9 94 -3.7 25.4
09:05 1020 30.12 849 25.07 -2.9 26.9 94 -3.7 25.3
09:10 1020 30.12 849 25.07 -2.8 26.9 94 -3.7 25.3
09:15 1020 30.12 849 25.07 -2.9 26.9 94 -3.7 25.3
09:20 1020 30.12 849 25.07 -2.8 26.9 94 -3.7 25.3
09:25 1020 30.12 850 25.1 -2.8 26.9 94 -3.7 25.3
09:30 1020 30.12 850 25.1 -2.8 27 94 -3.7 25.4
09:35 1020 30.12 850 25.1 -2.8 27 93 -3.7 25.4
09:40 1020 30.12 850 25.1 -2.8 27 93 -3.7 25.3
09:45 1021 30.15 850 25.1 -2.8 27 93 -3.7 25.3
09:50 1021 30.15 850 25.1 -2.7 27.1 93 -3.7 25.3
09:55 1021 30.15 850 25.1 -2.7 27.1 93 -3.7 25.3
10:00 1021 30.15 850 25.1 -2.7 27.1 93 -3.7 25.3
10:05 1021 30.15 850 25.1 -2.7 27.2 92 -3.7 25.3
10:10 1021 30.15 850 25.1 -2.7 27.2 92 -3.8 25.2
10:15 1021 30.15 850 25.1 -2.7 27.1 93 -3.7 25.3
10:20 1021 30.15 850 25.1 -2.6 27.3 92 -3.7 25.3
10:25 1021 30.15 850 25.1 -2.6 27.3 92 -3.7 25.3
10:30 1021 30.15 850 25.1 -2.6 27.3 92 -3.7 25.3
10:35 1021 30.15 850 25.1 -2.6 27.3 92 -3.7 25.3
10:40 1021 30.15 850 25.1 -2.6 27.4 92 -3.7 25.4
10:45 1021 30.15 850 25.1 -2.5 27.5 92 -3.6 25.5
10:50 1021 30.15 850 25.1 -2.5 27.4 92 -3.6 25.5
10:55 1021 30.15 850 25.1 -2.5 27.5 92 -3.6 25.5
11:00 1021 30.15 850 25.1 -2.4 27.6 92 -3.6 25.6
11:05 1021 30.15 850 25.1 -2.4 27.6 92 -3.6 25.5
11:10 1021 30.15 850 25.1 -2.5 27.5 92 -3.6 25.5
11:15 1021 30.15 850 25.1 -2.5 27.6 92 -3.5 25.6
11:20 1021 30.15 850 25.1 -2.4 27.7 93 -3.4 25.8
11:25 1021 30.15 850 25.1 -2.3 27.9 91 -3.5 25.7
11:30 1021 30.15 850 25.1 -2.3 27.8 92 -3.5 25.7
11:35 1021 30.15 850 25.1 -2.3 27.9 92 -3.4 25.8
11:40 1021 30.15 850 25.1 -2.2 28 92 -3.4 25.9
11:45 1021 30.15 850 25.1 -2 28.3 91 -3.3 26
11:50 1021 30.15 850 25.1 -2 28.3 91 -3.4 26
11:55 1021 30.15 850 25.1 -2.2 28.1 91 -3.4 25.8
12:00 1021 30.15 850 25.1 -2.1 28.1 91 -3.4 25.9
12:05 1021 30.15 850 25.1 -2.1 28.3 91 -3.4 25.9
12:10 1021 30.15 850 25.1 -2.2 28.1 91 -3.4 25.9
12:15 1021 30.15 850 25.1 -2.1 28.2 91 -3.3 26
12:20 1021 30.15 850 25.1 -2.1 28.3 91 -3.4 25.9
12:25 1021 30.15 850 25.1 -2.2 28.1 91 -3.4 25.9
12:30 1021 30.15 850 25.1 -2 28.4 91 -3.3 26
12:35 1021 30.15 850 25.1 -1.9 28.5 91 -3.3 26.1
12:40 1021 30.15 850 25.1 -1.9 28.6 90 -3.3 26.1
12:45 1021 30.15 850 25.1 -2 28.4 91 -3.3 26.1
12:50 1021 30.15 850 25.1 -2 28.4 91 -3.3 26
12:55 1021 30.15 850 25.1 -1.9 28.6 90 -3.3 26
13:00 1021 30.15 850 25.1 -1.9 28.5 90 -3.4 25.9
13:05 1021 30.15 850 25.1 -1.9 28.5 90 -3.4 25.9
13:10 1021 30.15 850 25.1 -2 28.3 90 -3.4 25.9
13:15 1021 30.15 850 25.1 -2 28.4 90 -3.4 25.8
13:20 1021 30.15 850 25.1 -2 28.3 90 -3.5 25.8
13:25 1021 30.15 850 25.1 -2 28.4 90 -3.5 25.8
13:30 1021 30.15 850 25.1 -2 28.4 90 -3.5 25.7
13:35 1021 30.15 850 25.1 -2 28.3 90 -3.5 25.7
13:40 1021 30.15 850 25.1 -2 28.4 90 -3.5 25.8
13:45 1021 30.15 850 25.1 -1.9 28.6 89 -3.5 25.7
13:50 1021 30.15 850 25.1 -1.8 28.8 89 -3.3 26
13:55 1021 30.15 850 25.1 -1.6 29.1 88 -3.3 26.1
14:00 1021 30.15 850 25.1 -1.6 29.1 88 -3.3 26.1
14:05 1021 30.15 850 25.1 -1.7 28.9 88 -3.5 25.8
14:10 1021 30.15 850 25.1 -1.8 28.7 88 -3.6 25.6
14:15 1020 30.12 850 25.1 -1.9 28.6 88 -3.7 25.4
14:20 1020 30.12 850 25.1 -1.8 28.7 88 -3.6 25.6
14:25 1021 30.15 850 25.1 -1.8 28.7 88 -3.6 25.6
14:30 1021 30.15 850 25.1 -1.9 28.6 88 -3.6 25.5
14:35 1021 30.15 850 25.1 -1.8 28.7 88 -3.6 25.5
14:40 1021 30.15 850 25.1 -1.9 28.6 89 -3.5 25.7
14:45 1021 30.15 850 25.1 -1.9 28.6 89 -3.5 25.8
14:50 1020 30.12 850 25.1 -1.9 28.6 89 -3.5 25.8
14:55 1020 30.12 850 25.1 -2 28.5 90 -3.4 25.8
15:00 1020 30.12 850 25.1 -1.9 28.5 89 -3.5 25.7
15:05 1020 30.12 850 25.1 -2.1 28.3 90 -3.5 25.7
15:10 1020 30.12 850 25.1 -2.1 28.3 90 -3.5 25.7
15:15 1020 30.12 850 25.1 -2.1 28.1 90 -3.5 25.7
15:20 1021 30.15 850 25.1 -2.2 28.1 90 -3.6 25.5
15:25 1021 30.15 850 25.1 -2.2 28.1 91 -3.5 25.7
15:30 1021 30.15 850 25.1 -2.2 28.1 91 -3.5 25.8
15:35 1021 30.15 850 25.1 -2.2 28.1 91 -3.5 25.7
15:40 1021 30.15 850 25.1 -2.1 28.3 91 -3.3 26
15:45 1021 30.15 850 25.1 -1.9 28.6 91 -3.2 26.2
15:50 1021 30.15 850 25.1 -1.9 28.6 91 -3.2 26.3
15:55 1021 30.15 850 25.1 -1.8 28.8 90 -3.2 26.2
16:00 1021 30.15 850 25.1 -1.7 29 89 -3.3 26.1
16:05 1021 30.15 850 25.1 -1.7 28.9 89 -3.3 26
16:10 1021 30.15 850 25.1 -1.8 28.7 90 -3.3 26
16:15 1021 30.15 850 25.1 -1.8 28.7 90 -3.2 26.2
16:20 1021 30.15 850 25.1 -1.7 28.9 90 -3.2 26.2
16:25 1021 30.15 850 25.1 -2 28.4 89 -3.5 25.7
16:30 1021 30.15 850 25.1 -2.2 28.1 91 -3.5 25.7
16:35 1021 30.15 850 25.1 -2.2 28 91 -3.5 25.7
16:40 1021 30.15 850 25.1 -2.3 27.9 91 -3.6 25.6
16:45 1021 30.15 850 25.1 -2.4 27.7 91 -3.6 25.4
16:50 1021 30.15 850 25.1 -2.4 27.7 91 -3.6 25.5
16:55 1021 30.15 850 25.1 -2.5 27.5 92 -3.7 25.4
17:00 1021 30.15 850 25.1 -2.5 27.4 92 -3.7 25.4
17:05 1021 30.15 850 25.1 -2.5 27.5 92 -3.6 25.5
17:10 1021 30.15 850 25.1 -2.5 27.5 92 -3.6 25.5
17:15 1021 30.15 850 25.1 -2.5 27.4 92 -3.6 25.5
17:20 1021 30.15 850 25.1 -2.6 27.4 92 -3.6 25.5
17:25 1021 30.15 850 25.1 -2.6 27.4 93 -3.6 25.5
17:30 1021 30.15 850 25.1 -2.6 27.3 93 -3.6 25.5
17:35 1021 30.15 850 25.1 -2.7 27.2 93 -3.7 25.4
17:40 1021 30.15 850 25.1 -2.7 27.2 93 -3.7 25.4
17:45 1021 30.15 850 25.1 -2.8 27 93 -3.7 25.3
17:50 1021 30.15 850 25.1 -2.8 27 93 -3.8 25.2
17:55 1021 30.15 850 25.1 -2.8 26.9 93 -3.8 25.2
18:00 1021 30.15 850 25.1 -2.8 26.9 93 -3.8 25.2
18:05 1021 30.15 850 25.1 -2.8 26.9 93 -3.8 25.2
18:10 1021 30.15 850 25.1 -2.8 26.9 94 -3.7 25.4
18:15 1021 30.15 850 25.1 -2.8 26.9 94 -3.7 25.3
18:20 1021 30.15 850 25.1 -2.8 26.9 94 -3.7 25.3
18:25 1021 30.15 850 25.1 -2.8 26.9 94 -3.7 25.3
18:30 1021 30.15 850 25.1 -2.9 26.8 93 -3.8 25.2
18:35 1021 30.15 850 25.1 -2.9 26.8 93 -3.8 25.1
18:40 1021 30.15 850 25.1 -3 26.7 94 -3.9 25.1
18:45 1021 30.15 850 25.1 -3 26.6 94 -3.9 25
18:50 1021 30.15 850 25.1 -3 26.5 93 -4 24.9
18:55 1021 30.15 851 25.13 -3.1 26.4 94 -4 24.8
19:00 1021 30.15 851 25.13 -3.2 26.3 94 -4.1 24.7
19:05 1021 30.15 851 25.13 -3.2 26.2 94 -4.1 24.6
19:10 1021 30.15 851 25.13 -3.3 26.1 94 -4.2 24.5
19:15 1021 30.15 851 25.13 -3.4 25.9 94 -4.2 24.4
19:20 1021 30.15 851 25.13 -3.4 25.9 94 -4.3 24.3
19:25 1021 30.15 851 25.13 -3.4 25.8 94 -4.3 24.2
19:30 1021 30.15 851 25.13 -3.5 25.7 94 -4.4 24.1
19:35 1022 30.18 851 25.13 -3.6 25.6 94 -4.4 24
19:40 1022 30.18 851 25.13 -3.6 25.6 94 -4.4 24.1
19:45 1022 30.18 851 25.13 -3.5 25.7 94 -4.4 24.1
19:50 1022 30.18 851 25.13 -3.5 25.7 94 -4.3 24.2
19:55 1022 30.18 851 25.13 -3.5 25.7 94 -4.4 24.1
20:00 1022 30.18 851 25.13 -3.6 25.5 94 -4.5 23.9
20:05 1022 30.18 851 25.13 -3.7 25.3 94 -4.6 23.7
20:10 1022 30.18 851 25.13 -3.8 25.2 94 -4.6 23.7
20:15 1022 30.18 851 25.13 -3.8 25.1 94 -4.7 23.6
20:20 1022 30.18 851 25.13 -3.9 25 94 -4.7 23.5
20:25 1022 30.18 851 25.13 -3.9 25 94 -4.7 23.5
20:30 1022 30.18 851 25.13 -3.9 25 94 -4.7 23.6
20:35 1022 30.18 851 25.13 -3.9 25 94 -4.8 23.4
20:40 1022 30.18 851 25.13 -4 24.9 94 -4.8 23.3
20:45 1022 30.18 851 25.13 -4 24.9 94 -4.8 23.3
20:50 1022 30.18 851 25.13 -4 24.8 94 -4.8 23.3
20:55 1022 30.18 851 25.13 -4 24.8 94 -4.8 23.3
21:00 1022 30.18 851 25.13 -4 24.8 94 -4.9 23.2
21:05 1022 30.18 851 25.13 -4.1 24.7 94 -4.9 23.1
21:10 1022 30.18 851 25.13 -4.1 24.7 94 -4.9 23.1
21:15 1022 30.18 851 25.13 -4.1 24.7 94 -4.9 23.1
21:20 1022 30.18 851 25.13 -4 24.7 94 -4.9 23.2
21:25 1022 30.18 851 25.13 -4 24.7 94 -4.9 23.1
21:30 1022 30.18 851 25.13 -4.1 24.6 94 -5 23
21:35 1022 30.18 851 25.13 -4.1 24.6 94 -5 22.9
21:40 1022 30.18 851 25.13 -4.1 24.5 94 -5 22.9
21:45 1022 30.18 851 25.13 -4.1 24.6 94 -5 23
21:50 1022 30.18 851 25.13 -4.1 24.6 94 -5 23
21:55 1022 30.18 851 25.13 -4.1 24.5 94 -5 23
22:00 1022 30.18 851 25.13 -4.1 24.6 94 -5 23.1
22:05 1022 30.18 851 25.13 -4.1 24.6 94 -5 23
22:10 1022 30.18 851 25.13 -4.1 24.7 94 -4.9 23.1
22:15 1022 30.18 851 25.13 -4.1 24.6 93 -5 23
22:20 1022 30.18 851 25.13 -4.1 24.6 93 -5 23
22:25 1022 30.18 851 25.13 -4.1 24.6 93 -5 22.9
22:30 1022 30.18 851 25.13 -4.1 24.6 94 -5 23
22:35 1022 30.18 851 25.13 -4.1 24.7 94 -4.9 23.1
22:40 1022 30.18 851 25.13 -4.1 24.7 93 -5 23
22:45 1022 30.18 851 25.13 -4.1 24.6 94 -5 23.1
22:50 1022 30.18 851 25.13 -4.1 24.6 94 -5 23
22:55 1022 30.18 851 25.13 -4.1 24.6 93 -5 23
23:00 1022 30.18 851 25.13 -4.2 24.5 94 -5 22.9
23:05 1022 30.18 851 25.13 -4.2 24.5 94 -5.1 22.9
23:10 1022 30.18 852 25.16 -4.2 24.5 93 -5.1 22.9
23:15 1022 30.18 852 25.16 -4.2 24.4 93 -5.1 22.8
23:20 1022 30.18 852 25.16 -4.2 24.4 93 -5.1 22.8
23:25 1022 30.18 852 25.16 -4.2 24.4 93 -5.1 22.8
23:30 1022 30.18 852 25.16 -4.2 24.4 93 -5.2 22.6
23:35 1023 30.21 852 25.16 -4.3 24.3 93 -5.2 22.6
23:40 1023 30.21 852 25.16 -4.3 24.2 93 -5.3 22.5
23:45 1023 30.21 852 25.16 -4.3 24.2 93 -5.2 22.6
23:50 1023 30.21 852 25.16 -4.4 24.2 93 -5.3 22.4
23:55 1023 30.21 852 25.16 -4.4 24 93 -5.4 22.2
24:00 1023 30.21 852 25.16 -4.5 23.9 93 -5.5 22.2